sensor_id;sensor_type;location;lat;lon;timestamp;P1;durP1;ratioP1;P2;durP2;ratioP2
42196;SDS011;27866;48.146;17.098;2022-07-29T00:04:06;8.32;;;3.75;;
42196;SDS011;27866;48.146;17.098;2022-07-29T00:08:17;7.22;;;3.92;;
42196;SDS011;27866;48.146;17.098;2022-07-29T00:12:28;4.65;;;3.67;;
42196;SDS011;27866;48.146;17.098;2022-07-29T00:16:39;5.70;;;3.50;;
42196;SDS011;27866;48.146;17.098;2022-07-29T00:20:51;4.53;;;3.53;;
42196;SDS011;27866;48.146;17.098;2022-07-29T00:25:02;7.38;;;4.00;;
42196;SDS011;27866;48.146;17.098;2022-07-29T00:29:14;5.85;;;3.92;;
42196;SDS011;27866;48.146;17.098;2022-07-29T00:33:25;5.38;;;3.90;;
42196;SDS011;27866;48.146;17.098;2022-07-29T00:37:36;6.93;;;3.78;;
42196;SDS011;27866;48.146;17.098;2022-07-29T00:41:47;5.53;;;3.78;;
42196;SDS011;27866;48.146;17.098;2022-07-29T00:45:59;5.07;;;3.63;;
42196;SDS011;27866;48.146;17.098;2022-07-29T00:50:11;6.20;;;3.67;;
42196;SDS011;27866;48.146;17.098;2022-07-29T00:54:23;6.72;;;3.67;;
42196;SDS011;27866;48.146;17.098;2022-07-29T00:58:34;5.78;;;3.40;;
42196;SDS011;27866;48.146;17.098;2022-07-29T01:02:46;7.13;;;3.75;;
42196;SDS011;27866;48.146;17.098;2022-07-29T01:07:01;5.40;;;3.70;;
42196;SDS011;27866;48.146;17.098;2022-07-29T01:11:13;7.05;;;3.78;;
42196;SDS011;27866;48.146;17.098;2022-07-29T01:15:26;6.28;;;3.50;;
42196;SDS011;27866;48.146;17.098;2022-07-29T01:24:01;7.10;;;3.83;;
42196;SDS011;27866;48.146;17.098;2022-07-29T01:32:59;9.35;;;3.70;;
42196;SDS011;27866;48.146;17.098;2022-07-29T01:37:24;6.95;;;3.72;;
42196;SDS011;27866;48.146;17.098;2022-07-29T01:41:57;4.97;;;3.83;;
42196;SDS011;27866;48.146;17.098;2022-07-29T01:46:33;8.88;;;4.00;;
42196;SDS011;27866;48.146;17.098;2022-07-29T01:50:53;8.00;;;3.80;;
42196;SDS011;27866;48.146;17.098;2022-07-29T01:55:13;5.80;;;3.90;;
42196;SDS011;27866;48.146;17.098;2022-07-29T01:59:26;6.00;;;3.90;;
42196;SDS011;27866;48.146;17.098;2022-07-29T02:03:38;5.22;;;4.03;;
42196;SDS011;27866;48.146;17.098;2022-07-29T02:07:50;7.00;;;3.70;;
42196;SDS011;27866;48.146;17.098;2022-07-29T02:12:02;4.50;;;3.67;;
42196;SDS011;27866;48.146;17.098;2022-07-29T02:16:14;6.90;;;4.10;;
42196;SDS011;27866;48.146;17.098;2022-07-29T02:20:27;8.45;;;3.90;;
42196;SDS011;27866;48.146;17.098;2022-07-29T02:24:39;8.10;;;3.70;;
42196;SDS011;27866;48.146;17.098;2022-07-29T02:28:52;4.63;;;3.40;;
42196;SDS011;27866;48.146;17.098;2022-07-29T02:33:05;6.68;;;3.53;;
42196;SDS011;27866;48.146;17.098;2022-07-29T02:37:17;7.38;;;3.47;;
42196;SDS011;27866;48.146;17.098;2022-07-29T02:41:30;8.00;;;4.05;;
42196;SDS011;27866;48.146;17.098;2022-07-29T02:45:46;4.32;;;3.53;;
42196;SDS011;27866;48.146;17.098;2022-07-29T02:50:06;6.35;;;3.67;;
42196;SDS011;27866;48.146;17.098;2022-07-29T02:54:31;7.17;;;3.20;;
42196;SDS011;27866;48.146;17.098;2022-07-29T02:59:17;5.40;;;3.30;;
42196;SDS011;27866;48.146;17.098;2022-07-29T03:03:34;5.90;;;3.47;;
42196;SDS011;27866;48.146;17.098;2022-07-29T03:07:52;4.65;;;3.53;;
42196;SDS011;27866;48.146;17.098;2022-07-29T03:12:06;5.22;;;3.33;;
42196;SDS011;27866;48.146;17.098;2022-07-29T03:16:18;4.43;;;3.42;;
42196;SDS011;27866;48.146;17.098;2022-07-29T03:20:30;5.47;;;3.50;;
42196;SDS011;27866;48.146;17.098;2022-07-29T03:24:41;9.15;;;4.28;;
42196;SDS011;27866;48.146;17.098;2022-07-29T03:28:53;6.50;;;4.78;;
42196;SDS011;27866;48.146;17.098;2022-07-29T03:33:05;9.05;;;5.70;;
42196;SDS011;27866;48.146;17.098;2022-07-29T03:37:16;10.40;;;6.47;;
42196;SDS011;27866;48.146;17.098;2022-07-29T03:41:27;10.30;;;6.82;;
42196;SDS011;27866;48.146;17.098;2022-07-29T03:45:41;10.32;;;7.20;;
42196;SDS011;27866;48.146;17.098;2022-07-29T03:49:57;7.90;;;6.97;;
42196;SDS011;27866;48.146;17.098;2022-07-29T03:54:11;9.68;;;6.90;;
42196;SDS011;27866;48.146;17.098;2022-07-29T03:58:22;11.40;;;5.97;;
42196;SDS011;27866;48.146;17.098;2022-07-29T04:02:34;6.22;;;4.78;;
42196;SDS011;27866;48.146;17.098;2022-07-29T04:06:46;5.93;;;4.75;;
42196;SDS011;27866;48.146;17.098;2022-07-29T04:10:58;6.05;;;4.70;;
42196;SDS011;27866;48.146;17.098;2022-07-29T04:15:10;7.25;;;5.00;;
42196;SDS011;27866;48.146;17.098;2022-07-29T04:19:22;5.93;;;5.07;;
42196;SDS011;27866;48.146;17.098;2022-07-29T04:23:33;5.90;;;4.65;;
42196;SDS011;27866;48.146;17.098;2022-07-29T04:27:44;8.85;;;5.18;;
42196;SDS011;27866;48.146;17.098;2022-07-29T04:32:10;6.65;;;5.20;;
42196;SDS011;27866;48.146;17.098;2022-07-29T04:36:22;8.60;;;5.00;;
42196;SDS011;27866;48.146;17.098;2022-07-29T04:40:33;9.82;;;4.95;;
42196;SDS011;27866;48.146;17.098;2022-07-29T04:44:44;7.05;;;5.63;;
42196;SDS011;27866;48.146;17.098;2022-07-29T04:48:56;8.75;;;5.80;;
42196;SDS011;27866;48.146;17.098;2022-07-29T04:53:07;9.55;;;4.65;;
42196;SDS011;27866;48.146;17.098;2022-07-29T04:57:18;7.40;;;4.95;;
42196;SDS011;27866;48.146;17.098;2022-07-29T05:01:29;5.57;;;5.03;;
42196;SDS011;27866;48.146;17.098;2022-07-29T05:05:41;6.43;;;4.55;;
42196;SDS011;27866;48.146;17.098;2022-07-29T05:09:52;5.50;;;3.70;;
42196;SDS011;27866;48.146;17.098;2022-07-29T05:14:04;9.40;;;4.15;;
42196;SDS011;27866;48.146;17.098;2022-07-29T05:18:15;6.43;;;3.60;;
42196;SDS011;27866;48.146;17.098;2022-07-29T05:22:26;8.35;;;3.60;;
42196;SDS011;27866;48.146;17.098;2022-07-29T05:26:37;5.82;;;3.63;;
42196;SDS011;27866;48.146;17.098;2022-07-29T05:30:49;10.80;;;3.65;;
42196;SDS011;27866;48.146;17.098;2022-07-29T05:35:03;7.05;;;3.40;;
42196;SDS011;27866;48.146;17.098;2022-07-29T05:39:14;8.52;;;3.80;;
42196;SDS011;27866;48.146;17.098;2022-07-29T05:43:28;8.55;;;3.80;;
42196;SDS011;27866;48.146;17.098;2022-07-29T05:47:39;9.27;;;4.13;;
42196;SDS011;27866;48.146;17.098;2022-07-29T05:51:51;7.75;;;3.35;;
42196;SDS011;27866;48.146;17.098;2022-07-29T05:56:03;6.28;;;3.55;;
42196;SDS011;27866;48.146;17.098;2022-07-29T06:00:15;9.40;;;3.77;;
42196;SDS011;27866;48.146;17.098;2022-07-29T06:04:27;7.53;;;3.90;;
42196;SDS011;27866;48.146;17.098;2022-07-29T06:08:38;8.82;;;3.42;;
42196;SDS011;27866;48.146;17.098;2022-07-29T06:12:50;9.23;;;3.58;;
42196;SDS011;27866;48.146;17.098;2022-07-29T06:17:01;13.82;;;4.85;;
42196;SDS011;27866;48.146;17.098;2022-07-29T06:21:13;9.27;;;4.10;;
42196;SDS011;27866;48.146;17.098;2022-07-29T06:25:24;7.22;;;3.67;;
42196;SDS011;27866;48.146;17.098;2022-07-29T06:29:39;11.38;;;4.00;;
42196;SDS011;27866;48.146;17.098;2022-07-29T06:33:50;14.90;;;4.32;;
42196;SDS011;27866;48.146;17.098;2022-07-29T06:38:02;8.60;;;3.90;;
42196;SDS011;27866;48.146;17.098;2022-07-29T06:42:14;6.25;;;3.38;;
42196;SDS011;27866;48.146;17.098;2022-07-29T06:46:26;6.85;;;3.70;;
42196;SDS011;27866;48.146;17.098;2022-07-29T06:50:38;9.00;;;3.47;;
42196;SDS011;27866;48.146;17.098;2022-07-29T06:54:50;6.78;;;3.80;;
42196;SDS011;27866;48.146;17.098;2022-07-29T07:03:16;14.35;;;4.18;;
42196;SDS011;27866;48.146;17.098;2022-07-29T07:07:27;8.52;;;3.97;;
42196;SDS011;27866;48.146;17.098;2022-07-29T07:11:39;4.70;;;3.58;;
42196;SDS011;27866;48.146;17.098;2022-07-29T07:15:50;6.53;;;3.80;;
42196;SDS011;27866;48.146;17.098;2022-07-29T07:20:02;4.78;;;3.38;;
42196;SDS011;27866;48.146;17.098;2022-07-29T07:24:15;12.15;;;3.80;;
42196;SDS011;27866;48.146;17.098;2022-07-29T07:28:26;8.20;;;3.20;;
42196;SDS011;27866;48.146;17.098;2022-07-29T07:32:37;9.13;;;3.65;;
42196;SDS011;27866;48.146;17.098;2022-07-29T07:36:49;14.38;;;3.38;;
42196;SDS011;27866;48.146;17.098;2022-07-29T07:41:03;11.25;;;3.30;;
42196;SDS011;27866;48.146;17.098;2022-07-29T07:45:14;11.10;;;3.47;;
42196;SDS011;27866;48.146;17.098;2022-07-29T07:49:25;6.22;;;3.10;;
42196;SDS011;27866;48.146;17.098;2022-07-29T07:53:37;6.00;;;2.80;;
42196;SDS011;27866;48.146;17.098;2022-07-29T07:57:48;10.23;;;3.63;;
42196;SDS011;27866;48.146;17.098;2022-07-29T08:02:00;7.78;;;3.60;;
42196;SDS011;27866;48.146;17.098;2022-07-29T08:06:11;7.15;;;3.13;;
42196;SDS011;27866;48.146;17.098;2022-07-29T08:10:22;10.68;;;3.40;;
42196;SDS011;27866;48.146;17.098;2022-07-29T08:14:52;9.68;;;3.38;;
42196;SDS011;27866;48.146;17.098;2022-07-29T08:19:04;4.80;;;3.50;;
42196;SDS011;27866;48.146;17.098;2022-07-29T08:23:15;7.15;;;3.20;;
42196;SDS011;27866;48.146;17.098;2022-07-29T08:27:27;8.07;;;3.60;;
42196;SDS011;27866;48.146;17.098;2022-07-29T08:31:41;6.63;;;3.35;;
42196;SDS011;27866;48.146;17.098;2022-07-29T08:35:52;8.10;;;3.03;;
42196;SDS011;27866;48.146;17.098;2022-07-29T08:40:04;5.20;;;3.20;;
42196;SDS011;27866;48.146;17.098;2022-07-29T08:48:28;6.38;;;3.40;;
42196;SDS011;27866;48.146;17.098;2022-07-29T08:52:40;8.68;;;3.10;;
42196;SDS011;27866;48.146;17.098;2022-07-29T08:56:52;9.27;;;3.17;;
42196;SDS011;27866;48.146;17.098;2022-07-29T09:01:03;11.70;;;3.47;;
42196;SDS011;27866;48.146;17.098;2022-07-29T09:05:14;4.95;;;3.20;;
42196;SDS011;27866;48.146;17.098;2022-07-29T09:09:26;8.85;;;3.20;;
42196;SDS011;27866;48.146;17.098;2022-07-29T09:13:37;6.20;;;3.30;;
42196;SDS011;27866;48.146;17.098;2022-07-29T09:17:49;5.00;;;3.00;;
42196;SDS011;27866;48.146;17.098;2022-07-29T09:22:01;7.72;;;3.10;;
42196;SDS011;27866;48.146;17.098;2022-07-29T09:26:17;6.45;;;3.38;;
42196;SDS011;27866;48.146;17.098;2022-07-29T09:30:28;4.55;;;2.92;;
42196;SDS011;27866;48.146;17.098;2022-07-29T09:34:39;9.20;;;3.08;;
42196;SDS011;27866;48.146;17.098;2022-07-29T09:39:00;5.03;;;2.92;;
42196;SDS011;27866;48.146;17.098;2022-07-29T09:43:13;6.73;;;2.50;;
42196;SDS011;27866;48.146;17.098;2022-07-29T09:47:25;5.68;;;2.53;;
42196;SDS011;27866;48.146;17.098;2022-07-29T09:52:03;5.97;;;2.40;;
42196;SDS011;27866;48.146;17.098;2022-07-29T09:56:16;4.32;;;2.33;;
42196;SDS011;27866;48.146;17.098;2022-07-29T10:00:27;5.40;;;2.22;;
42196;SDS011;27866;48.146;17.098;2022-07-29T10:04:40;5.80;;;2.20;;
42196;SDS011;27866;48.146;17.098;2022-07-29T10:08:53;3.90;;;2.10;;
42196;SDS011;27866;48.146;17.098;2022-07-29T10:13:05;4.75;;;2.05;;
42196;SDS011;27866;48.146;17.098;2022-07-29T10:17:21;6.70;;;2.30;;
42196;SDS011;27866;48.146;17.098;2022-07-29T10:21:32;4.75;;;2.20;;
42196;SDS011;27866;48.146;17.098;2022-07-29T10:25:45;6.78;;;2.40;;
42196;SDS011;27866;48.146;17.098;2022-07-29T10:29:56;5.72;;;2.40;;
42196;SDS011;27866;48.146;17.098;2022-07-29T10:34:11;3.20;;;2.40;;
42196;SDS011;27866;48.146;17.098;2022-07-29T10:43:06;5.28;;;2.60;;
42196;SDS011;27866;48.146;17.098;2022-07-29T10:47:28;5.85;;;2.20;;
42196;SDS011;27866;48.146;17.098;2022-07-29T10:56:32;6.45;;;2.20;;
42196;SDS011;27866;48.146;17.098;2022-07-29T11:00:47;3.47;;;2.08;;
42196;SDS011;27866;48.146;17.098;2022-07-29T11:05:03;5.40;;;2.38;;
42196;SDS011;27866;48.146;17.098;2022-07-29T11:09:22;9.70;;;2.53;;
42196;SDS011;27866;48.146;17.098;2022-07-29T11:13:46;9.20;;;2.35;;
42196;SDS011;27866;48.146;17.098;2022-07-29T11:22:11;12.10;;;2.53;;
42196;SDS011;27866;48.146;17.098;2022-07-29T11:26:23;9.25;;;2.83;;
42196;SDS011;27866;48.146;17.098;2022-07-29T11:30:47;6.15;;;2.33;;
42196;SDS011;27866;48.146;17.098;2022-07-29T11:35:13;5.95;;;2.28;;
42196;SDS011;27866;48.146;17.098;2022-07-29T11:39:25;5.72;;;2.47;;
42196;SDS011;27866;48.146;17.098;2022-07-29T11:48:04;4.18;;;2.28;;
42196;SDS011;27866;48.146;17.098;2022-07-29T11:52:16;5.70;;;2.10;;
42196;SDS011;27866;48.146;17.098;2022-07-29T11:56:29;6.40;;;2.17;;
42196;SDS011;27866;48.146;17.098;2022-07-29T12:00:46;3.08;;;2.10;;
42196;SDS011;27866;48.146;17.098;2022-07-29T12:04:58;14.40;;;2.67;;
42196;SDS011;27866;48.146;17.098;2022-07-29T12:09:10;5.40;;;2.20;;
42196;SDS011;27866;48.146;17.098;2022-07-29T12:13:21;3.83;;;2.33;;
42196;SDS011;27866;48.146;17.098;2022-07-29T12:17:33;12.73;;;4.55;;
42196;SDS011;27866;48.146;17.098;2022-07-29T12:21:45;7.10;;;2.35;;
42196;SDS011;27866;48.146;17.098;2022-07-29T12:25:57;5.90;;;2.17;;
42196;SDS011;27866;48.146;17.098;2022-07-29T12:30:10;4.18;;;2.00;;
42196;SDS011;27866;48.146;17.098;2022-07-29T12:34:27;4.63;;;2.25;;
42196;SDS011;27866;48.146;17.098;2022-07-29T12:38:40;10.02;;;2.20;;
42196;SDS011;27866;48.146;17.098;2022-07-29T12:47:32;7.15;;;2.40;;
42196;SDS011;27866;48.146;17.098;2022-07-29T12:51:44;9.27;;;2.85;;
42196;SDS011;27866;48.146;17.098;2022-07-29T12:55:56;5.80;;;2.30;;
42196;SDS011;27866;48.146;17.098;2022-07-29T13:00:11;5.55;;;2.30;;
42196;SDS011;27866;48.146;17.098;2022-07-29T13:04:24;3.53;;;2.40;;
42196;SDS011;27866;48.146;17.098;2022-07-29T13:08:57;8.88;;;2.90;;
42196;SDS011;27866;48.146;17.098;2022-07-29T13:13:17;5.82;;;2.65;;
42196;SDS011;27866;48.146;17.098;2022-07-29T13:17:28;7.22;;;2.75;;
42196;SDS011;27866;48.146;17.098;2022-07-29T13:21:50;5.78;;;2.55;;
42196;SDS011;27866;48.146;17.098;2022-07-29T13:26:09;11.20;;;2.85;;
42196;SDS011;27866;48.146;17.098;2022-07-29T13:30:26;6.20;;;2.17;;
42196;SDS011;27866;48.146;17.098;2022-07-29T13:34:38;6.23;;;2.50;;
42196;SDS011;27866;48.146;17.098;2022-07-29T13:38:52;4.63;;;2.22;;
42196;SDS011;27866;48.146;17.098;2022-07-29T13:47:18;4.95;;;2.30;;
42196;SDS011;27866;48.146;17.098;2022-07-29T13:51:30;8.18;;;2.13;;
42196;SDS011;27866;48.146;17.098;2022-07-29T13:55:41;7.78;;;2.30;;
42196;SDS011;27866;48.146;17.098;2022-07-29T13:59:53;5.57;;;2.05;;
42196;SDS011;27866;48.146;17.098;2022-07-29T14:04:05;4.70;;;2.47;;
42196;SDS011;27866;48.146;17.098;2022-07-29T14:08:16;17.85;;;3.63;;
42196;SDS011;27866;48.146;17.098;2022-07-29T14:12:27;12.80;;;3.40;;
42196;SDS011;27866;48.146;17.098;2022-07-29T14:16:39;5.35;;;2.90;;
42196;SDS011;27866;48.146;17.098;2022-07-29T14:20:53;6.35;;;2.50;;
42196;SDS011;27866;48.146;17.098;2022-07-29T14:25:05;4.47;;;2.53;;
42196;SDS011;27866;48.146;17.098;2022-07-29T14:29:16;5.17;;;2.60;;
42196;SDS011;27866;48.146;17.098;2022-07-29T14:33:28;12.07;;;3.70;;
42196;SDS011;27866;48.146;17.098;2022-07-29T14:37:39;5.90;;;3.20;;
42196;SDS011;27866;48.146;17.098;2022-07-29T14:41:50;20.35;;;3.72;;
42196;SDS011;27866;48.146;17.098;2022-07-29T14:46:01;7.93;;;2.70;;
42196;SDS011;27866;48.146;17.098;2022-07-29T14:50:16;8.35;;;2.67;;
42196;SDS011;27866;48.146;17.098;2022-07-29T14:54:28;5.57;;;2.40;;
42196;SDS011;27866;48.146;17.098;2022-07-29T14:58:40;5.93;;;2.65;;
42196;SDS011;27866;48.146;17.098;2022-07-29T15:02:51;6.57;;;2.65;;
42196;SDS011;27866;48.146;17.098;2022-07-29T15:07:02;5.90;;;2.60;;
42196;SDS011;27866;48.146;17.098;2022-07-29T15:11:14;4.15;;;2.50;;
42196;SDS011;27866;48.146;17.098;2022-07-29T15:15:25;13.73;;;3.20;;
42196;SDS011;27866;48.146;17.098;2022-07-29T15:19:36;9.70;;;3.10;;
42196;SDS011;27866;48.146;17.098;2022-07-29T15:23:48;5.95;;;3.13;;
42196;SDS011;27866;48.146;17.098;2022-07-29T15:27:59;12.27;;;3.65;;
42196;SDS011;27866;48.146;17.098;2022-07-29T15:32:13;8.40;;;3.50;;
42196;SDS011;27866;48.146;17.098;2022-07-29T15:36:24;8.85;;;3.75;;
42196;SDS011;27866;48.146;17.098;2022-07-29T15:40:36;7.07;;;3.38;;
42196;SDS011;27866;48.146;17.098;2022-07-29T15:44:49;8.35;;;3.78;;
42196;SDS011;27866;48.146;17.098;2022-07-29T15:49:01;6.45;;;3.85;;
42196;SDS011;27866;48.146;17.098;2022-07-29T15:53:13;7.90;;;3.83;;
42196;SDS011;27866;48.146;17.098;2022-07-29T15:57:24;8.43;;;4.32;;
42196;SDS011;27866;48.146;17.098;2022-07-29T16:01:35;8.27;;;4.45;;
42196;SDS011;27866;48.146;17.098;2022-07-29T16:05:47;11.73;;;5.05;;
42196;SDS011;27866;48.146;17.098;2022-07-29T16:09:58;6.68;;;4.45;;
42196;SDS011;27866;48.146;17.098;2022-07-29T16:14:10;12.43;;;5.10;;
42196;SDS011;27866;48.146;17.098;2022-07-29T16:18:22;10.15;;;5.28;;
42196;SDS011;27866;48.146;17.098;2022-07-29T16:22:33;7.32;;;4.63;;
42196;SDS011;27866;48.146;17.098;2022-07-29T16:26:44;8.40;;;5.05;;
42196;SDS011;27866;48.146;17.098;2022-07-29T16:30:56;11.77;;;4.65;;
42196;SDS011;27866;48.146;17.098;2022-07-29T16:35:07;9.57;;;4.75;;
42196;SDS011;27866;48.146;17.098;2022-07-29T16:39:19;9.05;;;4.72;;
42196;SDS011;27866;48.146;17.098;2022-07-29T16:43:30;7.82;;;5.05;;
42196;SDS011;27866;48.146;17.098;2022-07-29T16:47:42;6.68;;;4.55;;
42196;SDS011;27866;48.146;17.098;2022-07-29T16:51:53;7.05;;;4.70;;
42196;SDS011;27866;48.146;17.098;2022-07-29T16:56:04;7.07;;;4.63;;
42196;SDS011;27866;48.146;17.098;2022-07-29T17:00:15;8.85;;;4.70;;
42196;SDS011;27866;48.146;17.098;2022-07-29T17:04:30;6.03;;;4.80;;
42196;SDS011;27866;48.146;17.098;2022-07-29T17:08:41;11.90;;;4.80;;
42196;SDS011;27866;48.146;17.098;2022-07-29T17:12:53;5.57;;;4.90;;
42196;SDS011;27866;48.146;17.098;2022-07-29T17:17:04;6.97;;;4.57;;
42196;SDS011;27866;48.146;17.098;2022-07-29T17:21:17;8.87;;;4.70;;
42196;SDS011;27866;48.146;17.098;2022-07-29T17:25:28;11.25;;;5.20;;
42196;SDS011;27866;48.146;17.098;2022-07-29T17:29:39;9.07;;;4.63;;
42196;SDS011;27866;48.146;17.098;2022-07-29T17:33:51;7.65;;;4.40;;
42196;SDS011;27866;48.146;17.098;2022-07-29T17:38:02;8.95;;;4.20;;
42196;SDS011;27866;48.146;17.098;2022-07-29T17:42:13;13.30;;;7.90;;
42196;SDS011;27866;48.146;17.098;2022-07-29T17:46:25;7.15;;;4.40;;
42196;SDS011;27866;48.146;17.098;2022-07-29T17:50:36;6.78;;;4.15;;
42196;SDS011;27866;48.146;17.098;2022-07-29T17:54:48;6.75;;;4.82;;
42196;SDS011;27866;48.146;17.098;2022-07-29T17:58:59;7.32;;;4.82;;
42196;SDS011;27866;48.146;17.098;2022-07-29T18:03:16;7.45;;;4.72;;
42196;SDS011;27866;48.146;17.098;2022-07-29T18:07:27;6.13;;;4.47;;
42196;SDS011;27866;48.146;17.098;2022-07-29T18:11:39;9.18;;;4.82;;
42196;SDS011;27866;48.146;17.098;2022-07-29T18:15:50;9.18;;;4.40;;
42196;SDS011;27866;48.146;17.098;2022-07-29T18:20:02;6.22;;;4.57;;
42196;SDS011;27866;48.146;17.098;2022-07-29T18:24:14;7.53;;;4.28;;
42196;SDS011;27866;48.146;17.098;2022-07-29T18:28:26;8.55;;;4.55;;
42196;SDS011;27866;48.146;17.098;2022-07-29T18:32:37;10.00;;;5.07;;
42196;SDS011;27866;48.146;17.098;2022-07-29T18:36:49;14.02;;;5.10;;
42196;SDS011;27866;48.146;17.098;2022-07-29T18:41:00;10.32;;;5.30;;
42196;SDS011;27866;48.146;17.098;2022-07-29T18:45:12;8.65;;;4.97;;
42196;SDS011;27866;48.146;17.098;2022-07-29T18:49:23;6.43;;;5.18;;
42196;SDS011;27866;48.146;17.098;2022-07-29T18:53:34;11.65;;;5.60;;
42196;SDS011;27866;48.146;17.098;2022-07-29T18:57:46;10.85;;;4.82;;
42196;SDS011;27866;48.146;17.098;2022-07-29T19:01:57;8.38;;;5.18;;
42196;SDS011;27866;48.146;17.098;2022-07-29T19:06:08;7.47;;;5.53;;
42196;SDS011;27866;48.146;17.098;2022-07-29T19:10:20;8.30;;;5.38;;
42196;SDS011;27866;48.146;17.098;2022-07-29T19:14:31;15.57;;;7.10;;
42196;SDS011;27866;48.146;17.098;2022-07-29T19:18:43;8.48;;;5.65;;
42196;SDS011;27866;48.146;17.098;2022-07-29T19:22:54;8.93;;;5.28;;
42196;SDS011;27866;48.146;17.098;2022-07-29T19:27:05;10.63;;;5.15;;
42196;SDS011;27866;48.146;17.098;2022-07-29T19:31:17;7.50;;;5.50;;
42196;SDS011;27866;48.146;17.098;2022-07-29T19:35:28;8.25;;;5.90;;
42196;SDS011;27866;48.146;17.098;2022-07-29T19:39:42;9.18;;;5.75;;
42196;SDS011;27866;48.146;17.098;2022-07-29T19:43:55;13.65;;;8.30;;
42196;SDS011;27866;48.146;17.098;2022-07-29T19:48:06;9.27;;;6.97;;
42196;SDS011;27866;48.146;17.098;2022-07-29T19:52:17;13.15;;;7.18;;
42196;SDS011;27866;48.146;17.098;2022-07-29T19:56:29;13.48;;;6.80;;
42196;SDS011;27866;48.146;17.098;2022-07-29T20:00:41;12.02;;;6.38;;
42196;SDS011;27866;48.146;17.098;2022-07-29T20:04:52;9.73;;;5.80;;
42196;SDS011;27866;48.146;17.098;2022-07-29T20:09:04;13.63;;;6.40;;
42196;SDS011;27866;48.146;17.098;2022-07-29T20:13:16;9.52;;;6.82;;
42196;SDS011;27866;48.146;17.098;2022-07-29T20:17:27;8.85;;;6.93;;
42196;SDS011;27866;48.146;17.098;2022-07-29T20:21:38;9.73;;;6.88;;
42196;SDS011;27866;48.146;17.098;2022-07-29T20:25:50;9.25;;;7.60;;
42196;SDS011;27866;48.146;17.098;2022-07-29T20:30:01;11.60;;;7.32;;
42196;SDS011;27866;48.146;17.098;2022-07-29T20:34:13;9.60;;;6.10;;
42196;SDS011;27866;48.146;17.098;2022-07-29T20:38:24;7.75;;;5.43;;
42196;SDS011;27866;48.146;17.098;2022-07-29T20:42:36;8.45;;;4.78;;
42196;SDS011;27866;48.146;17.098;2022-07-29T20:46:47;7.22;;;4.78;;
42196;SDS011;27866;48.146;17.098;2022-07-29T20:50:58;6.22;;;4.80;;
42196;SDS011;27866;48.146;17.098;2022-07-29T20:55:09;7.65;;;4.40;;
42196;SDS011;27866;48.146;17.098;2022-07-29T20:59:21;8.65;;;4.55;;
42196;SDS011;27866;48.146;17.098;2022-07-29T21:03:32;8.07;;;4.43;;
42196;SDS011;27866;48.146;17.098;2022-07-29T21:07:44;6.70;;;3.70;;
42196;SDS011;27866;48.146;17.098;2022-07-29T21:11:55;6.95;;;4.70;;
42196;SDS011;27866;48.146;17.098;2022-07-29T21:20:22;9.85;;;4.30;;
42196;SDS011;27866;48.146;17.098;2022-07-29T21:24:36;7.45;;;5.13;;
42196;SDS011;27866;48.146;17.098;2022-07-29T21:28:47;8.93;;;5.82;;
42196;SDS011;27866;48.146;17.098;2022-07-29T21:33:00;10.13;;;6.00;;
42196;SDS011;27866;48.146;17.098;2022-07-29T21:37:12;8.65;;;5.38;;
42196;SDS011;27866;48.146;17.098;2022-07-29T21:41:23;7.10;;;5.60;;
42196;SDS011;27866;48.146;17.098;2022-07-29T21:45:34;8.77;;;5.18;;
42196;SDS011;27866;48.146;17.098;2022-07-29T21:49:46;8.23;;;4.80;;
42196;SDS011;27866;48.146;17.098;2022-07-29T21:53:57;5.53;;;4.68;;
42196;SDS011;27866;48.146;17.098;2022-07-29T21:58:08;8.82;;;5.70;;
42196;SDS011;27866;48.146;17.098;2022-07-29T22:02:24;11.13;;;5.65;;
42196;SDS011;27866;48.146;17.098;2022-07-29T22:06:36;8.10;;;5.78;;
42196;SDS011;27866;48.146;17.098;2022-07-29T22:10:47;10.80;;;6.20;;
42196;SDS011;27866;48.146;17.098;2022-07-29T22:14:59;11.23;;;6.68;;
42196;SDS011;27866;48.146;17.098;2022-07-29T22:19:10;7.50;;;6.20;;
42196;SDS011;27866;48.146;17.098;2022-07-29T22:23:22;9.82;;;8.02;;
42196;SDS011;27866;48.146;17.098;2022-07-29T22:27:33;9.52;;;8.27;;
42196;SDS011;27866;48.146;17.098;2022-07-29T22:31:45;10.35;;;8.20;;
42196;SDS011;27866;48.146;17.098;2022-07-29T22:35:56;11.10;;;8.90;;
42196;SDS011;27866;48.146;17.098;2022-07-29T22:40:07;11.60;;;8.38;;
42196;SDS011;27866;48.146;17.098;2022-07-29T22:44:19;12.52;;;8.82;;
42196;SDS011;27866;48.146;17.098;2022-07-29T22:48:30;11.43;;;8.10;;
42196;SDS011;27866;48.146;17.098;2022-07-29T22:52:42;13.55;;;8.50;;
42196;SDS011;27866;48.146;17.098;2022-07-29T22:56:53;10.10;;;7.65;;
42196;SDS011;27866;48.146;17.098;2022-07-29T23:01:04;9.32;;;7.28;;
42196;SDS011;27866;48.146;17.098;2022-07-29T23:05:16;11.32;;;7.30;;
42196;SDS011;27866;48.146;17.098;2022-07-29T23:09:27;8.38;;;6.95;;
42196;SDS011;27866;48.146;17.098;2022-07-29T23:13:39;11.93;;;7.30;;
42196;SDS011;27866;48.146;17.098;2022-07-29T23:17:50;12.00;;;7.68;;
42196;SDS011;27866;48.146;17.098;2022-07-29T23:22:02;9.23;;;7.57;;
42196;SDS011;27866;48.146;17.098;2022-07-29T23:26:13;8.88;;;7.32;;
42196;SDS011;27866;48.146;17.098;2022-07-29T23:30:26;9.45;;;7.90;;
42196;SDS011;27866;48.146;17.098;2022-07-29T23:34:38;11.48;;;8.10;;
42196;SDS011;27866;48.146;17.098;2022-07-29T23:38:49;8.90;;;7.85;;
42196;SDS011;27866;48.146;17.098;2022-07-29T23:43:00;10.45;;;8.50;;
42196;SDS011;27866;48.146;17.098;2022-07-29T23:47:12;15.15;;;9.75;;
42196;SDS011;27866;48.146;17.098;2022-07-29T23:51:23;12.95;;;9.13;;
42196;SDS011;27866;48.146;17.098;2022-07-29T23:55:34;10.32;;;8.23;;
42196;SDS011;27866;48.146;17.098;2022-07-29T23:59:45;13.15;;;8.30;;
